createdAt,value
2023-04-26T00:00:02.126Z,100.00
2023-04-26T00:02:36.171Z,100.00
2023-04-26T00:05:05.263Z,100.00
2023-04-26T00:07:34.077Z,100.00
2023-04-26T00:10:02.215Z,100.00
2023-04-26T00:12:30.714Z,100.00
2023-04-26T00:14:58.872Z,100.00
2023-04-26T00:17:26.941Z,100.00
2023-04-26T00:19:57.561Z,100.00
2023-04-26T00:22:25.681Z,100.00
2023-04-26T00:24:54.080Z,100.00
2023-04-26T00:27:22.161Z,100.00
2023-04-26T00:29:50.281Z,100.00
2023-04-26T00:32:18.411Z,100.00
2023-04-26T00:34:48.283Z,100.00
2023-04-26T00:37:21.500Z,100.00
2023-04-26T00:39:50.042Z,100.00
2023-04-26T00:42:19.433Z,100.00
2023-04-26T00:44:47.559Z,100.00
2023-04-26T00:47:15.586Z,100.00
2023-04-26T00:49:43.766Z,100.00
2023-04-26T00:52:11.844Z,100.00
2023-04-26T00:54:42.255Z,100.00
2023-04-26T00:57:10.801Z,100.00
2023-04-26T00:59:38.921Z,100.00
2023-04-26T01:02:06.972Z,100.00
2023-04-26T01:04:35.201Z,100.00
2023-04-26T01:07:03.963Z,100.00
2023-04-26T01:09:34.700Z,100.00
2023-04-26T01:12:04.276Z,100.00
2023-04-26T01:14:32.969Z,100.00
2023-04-26T01:17:01.596Z,100.00
2023-04-26T01:19:29.839Z,100.00
2023-04-26T01:21:58.232Z,100.00
2023-04-26T01:24:28.543Z,100.00
2023-04-26T01:26:57.486Z,100.00
2023-04-26T01:29:25.618Z,100.00
2023-04-26T01:31:53.805Z,100.00
2023-04-26T01:34:21.875Z,100.00
2023-04-26T01:36:50.334Z,100.00
2023-04-26T01:39:18.486Z,100.00
2023-04-26T01:41:47.916Z,100.00
2023-04-26T01:44:16.174Z,100.00
2023-04-26T01:46:45.041Z,100.00
2023-04-26T01:49:14.362Z,100.00
2023-04-26T01:51:42.523Z,100.00
2023-04-26T01:54:10.574Z,100.00
2023-04-26T01:56:38.698Z,100.00
2023-04-26T01:59:08.208Z,100.00
2023-04-26T02:01:36.284Z,100.00
2023-04-26T02:04:05.417Z,100.00
2023-04-26T02:06:33.463Z,100.00
2023-04-26T02:09:01.554Z,100.00
2023-04-26T02:11:29.658Z,100.00
2023-04-26T02:13:59.249Z,100.00
2023-04-26T02:16:29.213Z,100.00
2023-04-26T02:18:57.571Z,100.00
2023-04-26T02:21:26.748Z,100.00
2023-04-26T02:23:54.900Z,100.00
2023-04-26T02:26:23.025Z,100.00
2023-04-26T02:28:51.666Z,100.00
2023-04-26T02:31:21.736Z,100.00
2023-04-26T02:33:52.768Z,100.00
2023-04-26T02:36:20.819Z,100.00
2023-04-26T02:38:48.952Z,100.00
2023-04-26T02:41:17.095Z,100.00
2023-04-26T02:43:45.746Z,100.00
2023-04-26T02:46:17.183Z,100.00
2023-04-26T02:48:45.579Z,100.00
2023-04-26T02:51:16.098Z,100.00
2023-04-26T02:53:44.200Z,100.00
2023-04-26T02:56:12.649Z,100.00
2023-04-26T02:58:40.746Z,100.00
2023-04-26T03:01:08.840Z,100.00
2023-04-26T03:03:37.367Z,100.00
2023-04-26T03:06:06.405Z,100.00
2023-04-26T03:08:36.769Z,100.00
2023-04-26T03:11:05.512Z,100.00
2023-04-26T03:13:33.734Z,100.00
2023-04-26T03:16:02.114Z,100.00
2023-04-26T03:18:30.715Z,100.00
2023-04-26T03:20:58.927Z,100.00
2023-04-26T03:23:27.410Z,100.00
2023-04-26T03:25:57.318Z,100.00
2023-04-26T03:28:25.473Z,100.00
2023-04-26T03:30:53.547Z,100.00
2023-04-26T03:33:22.109Z,100.00
2023-04-26T03:35:51.628Z,100.00
2023-04-26T03:38:20.209Z,100.00
2023-04-26T03:40:48.407Z,100.00
2023-04-26T03:43:17.972Z,100.00
2023-04-26T03:45:48.874Z,100.00
2023-04-26T03:48:17.487Z,100.00
2023-04-26T03:50:46.701Z,100.00
2023-04-26T03:53:14.764Z,100.00
2023-04-26T03:55:43.246Z,100.00
2023-04-26T03:58:11.365Z,100.00
2023-04-26T04:00:41.145Z,100.00
2023-04-26T04:03:09.455Z,100.00
2023-04-26T04:05:38.268Z,100.00
2023-04-26T04:08:06.781Z,100.00
2023-04-26T04:10:35.051Z,100.00
2023-04-26T04:13:03.162Z,100.00
2023-04-26T04:15:31.819Z,100.00
2023-04-26T04:18:02.010Z,100.00
2023-04-26T04:20:30.171Z,100.00
2023-04-26T04:22:59.001Z,100.00
2023-04-26T04:25:27.182Z,100.00
2023-04-26T04:27:58.355Z,100.00
2023-04-26T04:30:26.898Z,100.00
2023-04-26T04:32:55.889Z,100.00
2023-04-26T04:35:28.625Z,100.00
2023-04-26T04:37:57.800Z,100.00
2023-04-26T04:40:26.771Z,100.00
2023-04-26T04:42:56.037Z,100.00
2023-04-26T04:45:27.175Z,100.00
2023-04-26T04:47:57.027Z,100.00
2023-04-26T04:50:26.720Z,100.00
2023-04-26T04:52:54.873Z,100.00
2023-04-26T04:55:23.348Z,100.00
2023-04-26T04:57:51.519Z,100.00
2023-04-26T05:00:21.663Z,100.00
2023-04-26T05:03:16.090Z,100.00
2023-04-26T05:05:45.699Z,100.00
2023-04-26T05:08:13.806Z,100.00
2023-04-26T05:10:42.005Z,100.00
2023-04-26T05:13:10.677Z,100.00
2023-04-26T05:15:39.957Z,100.00
2023-04-26T05:18:08.106Z,100.00
2023-04-26T05:20:36.228Z,100.00
2023-04-26T05:23:06.785Z,100.00
2023-04-26T05:25:38.512Z,100.00
2023-04-26T05:28:26.130Z,100.00
2023-04-26T05:31:16.961Z,100.00
2023-04-26T05:33:58.158Z,100.00
2023-04-26T05:36:32.244Z,100.00
2023-04-26T05:39:01.737Z,100.00
2023-04-26T05:41:30.415Z,100.00
2023-04-26T05:43:58.557Z,100.00
2023-04-26T05:46:27.326Z,100.00
2023-04-26T05:48:56.555Z,100.00
2023-04-26T05:51:24.852Z,100.00
2023-04-26T05:53:53.206Z,100.00
2023-04-26T05:56:26.840Z,100.00
2023-04-26T05:58:54.997Z,100.00
2023-04-26T06:01:23.107Z,100.00
2023-04-26T06:03:51.957Z,100.00
2023-04-26T06:06:24.106Z,100.00
2023-04-26T06:08:53.015Z,100.00
2023-04-26T06:11:21.563Z,100.00
2023-04-26T06:13:51.425Z,100.00
2023-04-26T06:16:20.075Z,100.00
2023-04-26T06:18:49.492Z,100.00
2023-04-26T06:21:17.586Z,100.00
2023-04-26T06:23:46.703Z,100.00
2023-04-26T06:26:14.857Z,100.00
2023-04-26T06:28:43.039Z,100.00
2023-04-26T06:31:12.581Z,99.40
2023-04-26T06:33:41.154Z,99.09
2023-04-26T06:36:12.980Z,97.86
2023-04-26T06:38:42.746Z,96.62
2023-04-26T06:41:10.908Z,96.07
2023-04-26T06:43:39.095Z,95.38
2023-04-26T06:46:09.246Z,95.59
2023-04-26T06:48:38.840Z,96.16
2023-04-26T06:51:08.534Z,94.95
2023-04-26T06:53:36.940Z,94.64
2023-04-26T06:56:05.258Z,92.33
2023-04-26T06:58:33.357Z,90.89
2023-04-26T07:01:01.458Z,91.72
2023-04-26T07:03:29.697Z,90.65
2023-04-26T07:05:59.274Z,91.23
2023-04-26T07:08:27.334Z,88.40
2023-04-26T07:10:55.476Z,87.47
2023-04-26T07:13:23.610Z,87.59
2023-04-26T07:15:52.040Z,88.80
2023-04-26T07:18:20.565Z,89.02
2023-04-26T07:20:48.598Z,86.72
2023-04-26T07:23:18.101Z,87.11
2023-04-26T07:25:46.143Z,87.05
2023-04-26T07:28:14.665Z,86.74
2023-04-26T07:30:42.961Z,86.16
2023-04-26T07:33:11.455Z,85.43
2023-04-26T07:35:39.567Z,85.32
2023-04-26T07:38:09.087Z,80.92
2023-04-26T07:40:38.635Z,80.92
2023-04-26T07:43:06.826Z,80.93
2023-04-26T07:45:34.932Z,78.04
2023-04-26T07:48:03.115Z,80.72
2023-04-26T07:50:31.288Z,80.09
2023-04-26T07:52:59.326Z,76.68
2023-04-26T07:55:27.483Z,77.76
2023-04-26T07:57:58.230Z,77.93
2023-04-26T08:00:26.513Z,78.42
2023-04-26T08:02:54.891Z,75.56
2023-04-26T08:05:23.522Z,75.47
2023-04-26T08:07:51.720Z,69.64
2023-04-26T08:10:19.809Z,68.32
2023-04-26T08:12:48.362Z,71.13
2023-04-26T08:15:17.855Z,71.56
2023-04-26T08:17:45.994Z,72.24
2023-04-26T08:20:14.410Z,71.78
2023-04-26T08:22:42.488Z,72.48
2023-04-26T08:25:11.514Z,72.41
2023-04-26T08:27:40.454Z,72.44
2023-04-26T08:30:09.630Z,74.35
2023-04-26T08:32:39.164Z,74.65
2023-04-26T08:35:07.847Z,71.54
2023-04-26T08:37:35.972Z,69.02
2023-04-26T08:40:04.972Z,66.38
2023-04-26T08:42:33.003Z,66.72
2023-04-26T08:45:02.387Z,67.59
2023-04-26T08:47:32.027Z,68.12
2023-04-26T08:50:03.710Z,67.46
2023-04-26T08:52:32.514Z,64.00
2023-04-26T08:55:01.243Z,65.36
2023-04-26T08:57:29.373Z,63.66
2023-04-26T08:59:58.407Z,63.63
2023-04-26T09:02:26.656Z,61.59
2023-04-26T09:04:54.980Z,61.67
2023-04-26T09:07:32.024Z,61.82
2023-04-26T09:10:00.972Z,60.90
2023-04-26T09:12:29.335Z,62.00
2023-04-26T09:14:57.754Z,63.11
2023-04-26T09:17:26.896Z,62.84
2023-04-26T09:19:55.028Z,62.73
2023-04-26T09:22:31.707Z,61.33
2023-04-26T09:24:59.850Z,59.92
2023-04-26T09:27:38.101Z,58.16
2023-04-26T09:30:09.380Z,57.12
2023-04-26T09:32:52.264Z,57.59
2023-04-26T09:35:24.094Z,59.23
2023-04-26T09:38:01.882Z,56.76
2023-04-26T09:40:35.930Z,58.73
2023-04-26T09:43:05.073Z,59.24
2023-04-26T09:45:34.424Z,58.86
2023-04-26T09:48:16.957Z,57.95
2023-04-26T09:50:45.839Z,57.41
2023-04-26T09:53:28.332Z,54.74
2023-04-26T09:55:56.608Z,53.54
2023-04-26T09:58:24.770Z,50.49
2023-04-26T10:00:53.211Z,50.33
2023-04-26T10:03:21.623Z,49.24
2023-04-26T10:05:49.885Z,50.67
2023-04-26T10:08:19.593Z,50.32
2023-04-26T10:10:47.753Z,51.00
2023-04-26T10:13:16.513Z,52.89
2023-04-26T10:15:44.637Z,51.61
2023-04-26T10:18:13.172Z,52.43
2023-04-26T10:20:42.667Z,54.58
2023-04-26T10:23:17.241Z,55.69
2023-04-26T10:25:48.238Z,49.94
2023-04-26T10:28:17.674Z,53.31
2023-04-26T10:30:58.053Z,52.67
2023-04-26T10:33:27.310Z,49.09
2023-04-26T10:36:16.105Z,47.32
2023-04-26T10:39:00.130Z,46.55
2023-04-26T10:41:33.786Z,48.86
2023-04-26T10:44:17.853Z,48.57
2023-04-26T10:46:47.287Z,47.39
2023-04-26T10:49:19.148Z,49.27
2023-04-26T10:52:16.062Z,46.55
2023-04-26T10:55:02.651Z,47.78
2023-04-26T10:57:51.633Z,46.25
2023-04-26T11:00:32.463Z,47.75
2023-04-26T11:03:08.837Z,47.87
2023-04-26T11:05:42.903Z,46.37
2023-04-26T11:08:17.022Z,45.52
2023-04-26T11:10:47.241Z,44.69
2023-04-26T11:13:18.093Z,46.76
2023-04-26T11:15:46.367Z,47.86
2023-04-26T11:18:14.490Z,48.97
2023-04-26T11:20:42.572Z,47.61
2023-04-26T11:23:11.132Z,47.97
2023-04-26T11:25:40.672Z,47.56
2023-04-26T11:28:09.400Z,47.32
2023-04-26T11:30:38.999Z,47.27
2023-04-26T11:33:07.135Z,46.93
2023-04-26T11:35:36.052Z,47.49
2023-04-26T11:38:05.434Z,47.44
2023-04-26T11:40:34.232Z,46.81
2023-04-26T11:43:03.583Z,46.20
2023-04-26T11:45:33.046Z,45.39
2023-04-26T11:48:03.387Z,46.10
2023-04-26T11:50:32.848Z,48.41
2023-04-26T11:53:03.333Z,49.03
2023-04-26T11:55:32.216Z,48.15
2023-04-26T11:58:00.441Z,48.42
2023-04-26T12:00:28.893Z,49.55
2023-04-26T12:02:58.322Z,47.71
2023-04-26T12:05:30.703Z,48.65
2023-04-26T12:07:59.814Z,47.97
2023-04-26T12:10:28.846Z,48.74
2023-04-26T12:12:57.472Z,48.07
2023-04-26T12:15:26.063Z,47.49
2023-04-26T12:17:57.918Z,45.19
2023-04-26T12:20:32.410Z,46.93
2023-04-26T12:23:01.374Z,46.62
2023-04-26T12:25:29.572Z,47.09
2023-04-26T12:27:57.827Z,48.21
2023-04-26T12:30:27.331Z,49.27
2023-04-26T12:33:15.568Z,48.68
2023-04-26T12:35:47.857Z,45.53
2023-04-26T12:38:15.991Z,48.17
2023-04-26T12:40:45.303Z,47.05
2023-04-26T12:43:13.461Z,46.59
2023-04-26T12:45:41.562Z,46.38
2023-04-26T12:48:09.722Z,45.46
2023-04-26T12:50:38.274Z,46.04
2023-04-26T12:53:07.944Z,45.31
2023-04-26T12:55:36.161Z,47.74
2023-04-26T12:58:04.266Z,47.90
2023-04-26T13:00:32.365Z,47.41
2023-04-26T13:03:01.565Z,48.16
2023-04-26T13:05:30.105Z,48.48
2023-04-26T13:07:58.299Z,48.86
2023-04-26T13:10:28.053Z,48.70
2023-04-26T13:12:57.955Z,48.14
2023-04-26T13:15:26.952Z,47.79
2023-04-26T13:17:55.223Z,47.65
2023-04-26T13:20:25.731Z,47.74
2023-04-26T13:22:54.824Z,47.59
2023-04-26T13:25:23.495Z,47.75
2023-04-26T13:27:54.804Z,47.97
2023-04-26T13:30:23.327Z,48.89
2023-04-26T13:32:51.792Z,48.04
2023-04-26T13:35:20.114Z,50.06
2023-04-26T13:37:48.382Z,47.86
2023-04-26T13:40:17.181Z,48.40
2023-04-26T13:42:45.284Z,49.06
2023-04-26T13:45:16.612Z,49.56
2023-04-26T13:47:45.760Z,48.71
2023-04-26T13:50:13.906Z,49.44
2023-04-26T13:52:42.038Z,49.64
2023-04-26T13:55:10.534Z,50.09
2023-04-26T13:57:38.758Z,48.91
2023-04-26T14:00:08.772Z,47.99
2023-04-26T14:02:41.323Z,48.92
2023-04-26T14:05:10.482Z,49.92
2023-04-26T14:07:38.714Z,48.98
2023-04-26T14:10:07.830Z,48.11
2023-04-26T14:12:36.292Z,47.91
2023-04-26T14:15:06.040Z,48.94
2023-04-26T14:17:34.258Z,49.52
2023-04-26T14:20:04.018Z,48.88
2023-04-26T14:22:32.088Z,51.37
2023-04-26T14:25:00.191Z,51.84
2023-04-26T14:27:28.645Z,50.80
2023-04-26T14:29:56.944Z,49.95
2023-04-26T14:32:25.058Z,50.47
2023-04-26T14:34:53.485Z,49.47
2023-04-26T14:37:24.039Z,49.38
2023-04-26T14:39:53.542Z,49.59
2023-04-26T14:42:21.545Z,49.25
2023-04-26T14:44:49.835Z,50.97
2023-04-26T14:47:17.944Z,51.34
2023-04-26T14:49:46.241Z,51.11
2023-04-26T14:52:14.349Z,50.70
2023-04-26T14:54:46.687Z,49.66
2023-04-26T14:57:16.211Z,49.48
2023-04-26T14:59:44.555Z,47.56
2023-04-26T15:02:12.726Z,46.16
2023-04-26T15:04:41.231Z,47.37
2023-04-26T15:07:15.228Z,48.55
2023-04-26T15:09:51.418Z,49.04
2023-04-26T15:12:19.592Z,49.66
2023-04-26T15:14:47.708Z,48.75
2023-04-26T15:17:15.743Z,49.67
2023-04-26T15:19:44.025Z,50.26
2023-04-26T15:22:12.212Z,49.94
2023-04-26T15:24:40.335Z,50.02
2023-04-26T15:27:10.530Z,50.64
2023-04-26T15:29:38.648Z,50.06
2023-04-26T15:32:06.809Z,49.39
2023-04-26T15:34:40.087Z,50.90
2023-04-26T15:37:08.197Z,52.17
2023-04-26T15:39:36.836Z,51.77
2023-04-26T15:42:05.600Z,51.17
2023-04-26T15:44:35.108Z,51.65
2023-04-26T15:47:03.834Z,52.32
2023-04-26T15:49:32.368Z,54.27
2023-04-26T15:52:00.738Z,53.46
2023-04-26T15:54:28.862Z,51.68
2023-04-26T15:56:56.884Z,51.29
2023-04-26T15:59:25.399Z,51.57
2023-04-26T16:01:55.160Z,51.36
2023-04-26T16:04:23.785Z,51.10
2023-04-26T16:06:52.014Z,51.59
2023-04-26T16:09:24.965Z,51.03
2023-04-26T16:11:53.956Z,51.81
2023-04-26T16:14:22.460Z,52.64
2023-04-26T16:16:51.035Z,52.09
2023-04-26T16:19:20.481Z,52.08
2023-04-26T16:21:48.862Z,52.05
2023-04-26T16:24:16.940Z,53.36
2023-04-26T16:26:45.081Z,52.95
2023-04-26T16:29:13.289Z,53.59
2023-04-26T16:31:41.810Z,53.97
2023-04-26T16:34:09.911Z,53.12
2023-04-26T16:36:39.763Z,52.93
2023-04-26T16:39:07.986Z,53.33
2023-04-26T16:41:36.101Z,53.32
2023-04-26T16:44:04.615Z,52.17
2023-04-26T16:46:32.721Z,52.31
2023-04-26T16:49:00.929Z,52.15
2023-04-26T16:51:29.075Z,53.42
2023-04-26T16:53:58.597Z,52.26
2023-04-26T16:56:26.739Z,54.17
2023-04-26T16:58:55.750Z,54.47
2023-04-26T17:01:23.915Z,55.21
2023-04-26T17:03:52.334Z,55.17
2023-04-26T17:06:20.680Z,56.87
2023-04-26T17:08:48.790Z,54.84
2023-04-26T17:11:18.793Z,53.48
2023-04-26T17:13:47.031Z,54.36
2023-04-26T17:16:15.185Z,54.64
2023-04-26T17:18:43.566Z,54.68
2023-04-26T17:21:12.135Z,53.86
2023-04-26T17:23:40.251Z,55.21
2023-04-26T17:26:08.312Z,56.78
2023-04-26T17:28:39.010Z,56.47
2023-04-26T17:31:07.162Z,56.20
2023-04-26T17:33:36.848Z,56.55
2023-04-26T17:36:05.381Z,58.72
2023-04-26T17:38:34.064Z,58.86
2023-04-26T17:41:02.140Z,58.43
2023-04-26T17:43:30.214Z,58.01
2023-04-26T17:45:59.917Z,58.19
2023-04-26T17:48:29.145Z,58.46
2023-04-26T17:50:58.106Z,59.21
2023-04-26T17:53:26.526Z,59.04
2023-04-26T17:55:55.283Z,59.05
2023-04-26T17:58:23.387Z,58.79
2023-04-26T18:00:51.702Z,59.52
2023-04-26T18:03:21.694Z,60.36
2023-04-26T18:05:50.715Z,60.86
2023-04-26T18:08:18.831Z,61.34
2023-04-26T18:10:48.441Z,62.00
2023-04-26T18:13:16.943Z,61.96
2023-04-26T18:15:45.118Z,62.84
2023-04-26T18:18:13.361Z,63.34
2023-04-26T18:20:42.916Z,64.59
2023-04-26T18:23:11.070Z,63.56
2023-04-26T18:25:39.148Z,65.48
2023-04-26T18:28:08.694Z,65.42
2023-04-26T18:30:36.846Z,66.66
2023-04-26T18:33:06.187Z,65.71
2023-04-26T18:35:34.556Z,67.11
2023-04-26T18:38:04.737Z,69.07
2023-04-26T18:40:33.598Z,68.78
2023-04-26T18:43:02.057Z,68.78
2023-04-26T18:45:31.166Z,70.04
2023-04-26T18:47:59.438Z,70.24
2023-04-26T18:50:27.557Z,72.19
2023-04-26T18:52:55.712Z,71.71
2023-04-26T18:55:25.922Z,73.94
2023-04-26T18:57:54.582Z,74.08
2023-04-26T19:00:22.932Z,76.17
2023-04-26T19:02:51.523Z,75.08
2023-04-26T19:05:20.236Z,75.60
2023-04-26T19:07:50.026Z,76.88
2023-04-26T19:10:20.722Z,76.01
2023-04-26T19:12:50.687Z,76.75
2023-04-26T19:15:18.784Z,76.75
2023-04-26T19:17:50.471Z,76.98
2023-04-26T19:20:20.111Z,77.66
2023-04-26T19:22:48.207Z,77.89
2023-04-26T19:25:20.390Z,78.02
2023-04-26T19:27:50.362Z,78.12
2023-04-26T19:30:18.475Z,78.66
2023-04-26T19:32:46.779Z,79.21
2023-04-26T19:35:15.134Z,78.94
2023-04-26T19:37:43.219Z,79.47
2023-04-26T19:40:12.134Z,79.57
2023-04-26T19:42:40.150Z,80.45
2023-04-26T19:45:11.085Z,82.18
2023-04-26T19:47:41.762Z,82.27
2023-04-26T19:50:10.758Z,82.84
2023-04-26T19:52:39.500Z,82.38
2023-04-26T19:55:10.479Z,83.45
2023-04-26T19:57:38.690Z,82.49
2023-04-26T20:00:11.682Z,83.28
2023-04-26T20:02:39.861Z,84.33
2023-04-26T20:05:09.367Z,84.00
2023-04-26T20:07:37.849Z,84.56
2023-04-26T20:10:07.110Z,84.39
2023-04-26T20:12:35.205Z,83.70
2023-04-26T20:15:03.469Z,84.72
2023-04-26T20:17:33.045Z,85.22
2023-04-26T20:20:02.172Z,85.75
2023-04-26T20:22:30.285Z,85.99
2023-04-26T20:24:58.383Z,86.30
2023-04-26T20:27:28.062Z,86.28
2023-04-26T20:29:56.408Z,85.41
2023-04-26T20:32:24.687Z,85.86
2023-04-26T20:34:55.488Z,85.61
2023-04-26T20:37:23.550Z,85.78
2023-04-26T20:39:51.641Z,85.89
2023-04-26T20:42:19.795Z,85.94
2023-04-26T20:44:47.848Z,86.32
2023-04-26T20:47:16.331Z,87.21
2023-04-26T20:49:44.428Z,86.33
2023-04-26T20:52:14.030Z,87.40
2023-04-26T20:54:42.103Z,88.48
2023-04-26T20:57:10.236Z,89.77
2023-04-26T20:59:38.324Z,89.32
2023-04-26T21:02:07.800Z,89.92
2023-04-26T21:04:38.676Z,91.02
2023-04-26T21:07:07.115Z,91.76
2023-04-26T21:09:36.609Z,91.70
2023-04-26T21:12:04.842Z,92.61
2023-04-26T21:14:32.917Z,92.45
2023-04-26T21:17:01.796Z,91.98
2023-04-26T21:19:29.840Z,93.01
2023-04-26T21:21:57.907Z,93.24
2023-04-26T21:24:25.960Z,94.01
2023-04-26T21:26:55.447Z,94.08
2023-04-26T21:29:23.988Z,93.82
2023-04-26T21:31:52.141Z,94.34
2023-04-26T21:34:20.373Z,93.30
2023-04-26T21:36:48.464Z,93.99
2023-04-26T21:39:16.546Z,93.88
2023-04-26T21:41:44.632Z,93.56
2023-04-26T21:44:14.351Z,94.05
2023-04-26T21:46:42.471Z,95.41
2023-04-26T21:49:11.510Z,95.80
2023-04-26T21:51:39.866Z,95.48
2023-04-26T21:54:08.091Z,95.84
2023-04-26T21:56:36.605Z,95.72
2023-04-26T21:59:04.895Z,96.13
2023-04-26T22:01:34.459Z,96.14
2023-04-26T22:04:02.799Z,96.92
2023-04-26T22:06:31.003Z,96.93
2023-04-26T22:08:59.107Z,97.76
2023-04-26T22:11:27.629Z,97.35
2023-04-26T22:13:55.722Z,97.58
2023-04-26T22:16:23.836Z,98.32
2023-04-26T22:18:53.587Z,98.45
2023-04-26T22:21:22.291Z,98.49
2023-04-26T22:23:50.433Z,98.10
2023-04-26T22:26:18.934Z,99.74
2023-04-26T22:28:47.028Z,98.60
2023-04-26T22:31:15.312Z,99.41
2023-04-26T22:33:43.569Z,99.07
2023-04-26T22:36:13.005Z,99.65
2023-04-26T22:38:41.444Z,99.72
2023-04-26T22:41:09.523Z,98.73
2023-04-26T22:43:37.807Z,99.00
2023-04-26T22:46:06.061Z,99.23
2023-04-26T22:48:34.118Z,99.06
2023-04-26T22:51:02.207Z,99.21
2023-04-26T22:53:33.043Z,99.49
2023-04-26T22:56:01.177Z,100.00
2023-04-26T22:58:29.240Z,100.00
2023-04-26T23:00:57.362Z,100.00
2023-04-26T23:03:25.639Z,100.00
2023-04-26T23:05:54.128Z,100.00
2023-04-26T23:08:22.230Z,100.00
2023-04-26T23:10:51.690Z,100.00
2023-04-26T23:13:19.765Z,100.00
2023-04-26T23:15:47.808Z,100.00
2023-04-26T23:18:16.338Z,100.00
2023-04-26T23:20:44.892Z,100.00
2023-04-26T23:23:13.070Z,100.00
2023-04-26T23:25:42.245Z,100.00
2023-04-26T23:28:12.024Z,100.00
2023-04-26T23:30:40.112Z,100.00
2023-04-26T23:33:08.693Z,100.00
2023-04-26T23:35:41.625Z,99.88
2023-04-26T23:38:09.750Z,99.82
2023-04-26T23:40:38.100Z,100.00
2023-04-26T23:43:06.391Z,100.00
2023-04-26T23:45:35.877Z,100.00
2023-04-26T23:48:04.605Z,100.00
2023-04-26T23:50:32.652Z,100.00
2023-04-26T23:53:00.793Z,100.00
2023-04-26T23:55:29.188Z,100.00
2023-04-26T23:57:57.305Z,100.00
